sensor_id;sensor_type;location;lat;lon;timestamp;temperature;humidity
13049;DHT22;6591;51.446;5.404;2023-07-24T00:01:57;20.20;99.90
13049;DHT22;6591;51.446;5.404;2023-07-24T00:05:38;21.50;99.90
13049;DHT22;6591;51.446;5.404;2023-07-24T00:08:05;20.10;99.90
13049;DHT22;6591;51.446;5.404;2023-07-24T00:10:33;20.10;99.90
13049;DHT22;6591;51.446;5.404;2023-07-24T00:13:00;20.00;99.90
13049;DHT22;6591;51.446;5.404;2023-07-24T00:15:28;20.10;99.90
13049;DHT22;6591;51.446;5.404;2023-07-24T00:17:55;20.10;99.90
13049;DHT22;6591;51.446;5.404;2023-07-24T00:20:22;20.10;99.90
13049;DHT22;6591;51.446;5.404;2023-07-24T00:22:51;20.00;99.90
13049;DHT22;6591;51.446;5.404;2023-07-24T00:25:18;20.00;99.90
13049;DHT22;6591;51.446;5.404;2023-07-24T00:27:45;20.00;99.90
13049;DHT22;6591;51.446;5.404;2023-07-24T00:30:12;20.10;99.90
13049;DHT22;6591;51.446;5.404;2023-07-24T00:32:39;20.10;99.90
13049;DHT22;6591;51.446;5.404;2023-07-24T00:35:06;20.10;99.90
13049;DHT22;6591;51.446;5.404;2023-07-24T00:37:34;20.10;99.90
13049;DHT22;6591;51.446;5.404;2023-07-24T00:40:02;20.00;99.90
13049;DHT22;6591;51.446;5.404;2023-07-24T00:42:30;20.00;99.90
13049;DHT22;6591;51.446;5.404;2023-07-24T00:44:57;19.90;99.90
13049;DHT22;6591;51.446;5.404;2023-07-24T00:47:26;20.10;99.90
13049;DHT22;6591;51.446;5.404;2023-07-24T00:49:54;20.10;99.90
13049;DHT22;6591;51.446;5.404;2023-07-24T00:52:22;20.00;99.90
13049;DHT22;6591;51.446;5.404;2023-07-24T00:54:50;20.10;99.90
13049;DHT22;6591;51.446;5.404;2023-07-24T00:57:18;20.10;99.90
13049;DHT22;6591;51.446;5.404;2023-07-24T00:59:45;20.10;99.90
13049;DHT22;6591;51.446;5.404;2023-07-24T01:02:14;20.10;99.90
13049;DHT22;6591;51.446;5.404;2023-07-24T01:04:41;20.10;99.90
13049;DHT22;6591;51.446;5.404;2023-07-24T01:07:08;20.10;99.90
13049;DHT22;6591;51.446;5.404;2023-07-24T01:09:35;22.10;99.90
13049;DHT22;6591;51.446;5.404;2023-07-24T01:12:27;20.10;99.90
13049;DHT22;6591;51.446;5.404;2023-07-24T01:15:09;20.10;99.90
13049;DHT22;6591;51.446;5.404;2023-07-24T01:18:09;20.10;99.90
13049;DHT22;6591;51.446;5.404;2023-07-24T01:20:45;20.10;99.90
13049;DHT22;6591;51.446;5.404;2023-07-24T01:23:51;20.10;99.90
13049;DHT22;6591;51.446;5.404;2023-07-24T01:26:31;18.50;99.90
13049;DHT22;6591;51.446;5.404;2023-07-24T01:29:01;20.10;99.90
13049;DHT22;6591;51.446;5.404;2023-07-24T01:31:31;20.10;99.90
13049;DHT22;6591;51.446;5.404;2023-07-24T01:33:58;20.00;99.90
13049;DHT22;6591;51.446;5.404;2023-07-24T01:36:29;20.70;99.90
13049;DHT22;6591;51.446;5.404;2023-07-24T01:39:03;20.20;99.90
13049;DHT22;6591;51.446;5.404;2023-07-24T01:41:40;20.10;99.90
13049;DHT22;6591;51.446;5.404;2023-07-24T01:44:10;20.00;99.90
13049;DHT22;6591;51.446;5.404;2023-07-24T01:46:38;20.10;99.90
13049;DHT22;6591;51.446;5.404;2023-07-24T01:49:08;20.20;99.90
13049;DHT22;6591;51.446;5.404;2023-07-24T01:51:35;19.90;99.90
13049;DHT22;6591;51.446;5.404;2023-07-24T01:54:05;20.90;99.90
13049;DHT22;6591;51.446;5.404;2023-07-24T01:56:36;20.10;99.90
13049;DHT22;6591;51.446;5.404;2023-07-24T01:59:04;21.10;99.90
13049;DHT22;6591;51.446;5.404;2023-07-24T02:01:32;20.20;99.90
13049;DHT22;6591;51.446;5.404;2023-07-24T02:04:00;20.10;99.90
13049;DHT22;6591;51.446;5.404;2023-07-24T02:06:27;20.10;99.90
13049;DHT22;6591;51.446;5.404;2023-07-24T02:08:55;20.10;99.90
13049;DHT22;6591;51.446;5.404;2023-07-24T02:11:22;20.10;99.90
13049;DHT22;6591;51.446;5.404;2023-07-24T02:13:50;20.10;99.90
13049;DHT22;6591;51.446;5.404;2023-07-24T02:16:22;20.10;99.90
13049;DHT22;6591;51.446;5.404;2023-07-24T02:18:49;20.10;99.90
13049;DHT22;6591;51.446;5.404;2023-07-24T02:21:16;20.10;99.90
13049;DHT22;6591;51.446;5.404;2023-07-24T02:23:45;20.10;99.90
13049;DHT22;6591;51.446;5.404;2023-07-24T02:26:12;20.70;99.90
13049;DHT22;6591;51.446;5.404;2023-07-24T02:28:40;20.10;99.90
13049;DHT22;6591;51.446;5.404;2023-07-24T02:31:07;20.70;99.90
13049;DHT22;6591;51.446;5.404;2023-07-24T02:33:34;20.10;99.90
13049;DHT22;6591;51.446;5.404;2023-07-24T02:36:01;20.10;99.90
13049;DHT22;6591;51.446;5.404;2023-07-24T02:38:28;20.00;99.90
13049;DHT22;6591;51.446;5.404;2023-07-24T02:40:55;20.00;99.90
13049;DHT22;6591;51.446;5.404;2023-07-24T02:43:22;20.00;99.90
13049;DHT22;6591;51.446;5.404;2023-07-24T02:45:50;20.00;99.90
13049;DHT22;6591;51.446;5.404;2023-07-24T02:48:17;20.00;99.90
13049;DHT22;6591;51.446;5.404;2023-07-24T02:50:44;20.40;99.90
13049;DHT22;6591;51.446;5.404;2023-07-24T02:53:14;18.60;99.90
13049;DHT22;6591;51.446;5.404;2023-07-24T02:55:44;20.00;99.90
13049;DHT22;6591;51.446;5.404;2023-07-24T02:58:13;19.90;99.90
13049;DHT22;6591;51.446;5.404;2023-07-24T03:00:41;19.90;99.90
13049;DHT22;6591;51.446;5.404;2023-07-24T03:03:08;21.00;99.90
13049;DHT22;6591;51.446;5.404;2023-07-24T03:05:35;19.90;99.90
13049;DHT22;6591;51.446;5.404;2023-07-24T03:08:02;20.30;99.90
13049;DHT22;6591;51.446;5.404;2023-07-24T03:10:29;19.90;99.90
13049;DHT22;6591;51.446;5.404;2023-07-24T03:12:56;19.80;99.90
13049;DHT22;6591;51.446;5.404;2023-07-24T03:15:23;19.90;99.90
13049;DHT22;6591;51.446;5.404;2023-07-24T03:17:51;19.80;99.90
13049;DHT22;6591;51.446;5.404;2023-07-24T03:20:20;19.90;99.90
13049;DHT22;6591;51.446;5.404;2023-07-24T03:22:49;19.80;99.90
13049;DHT22;6591;51.446;5.404;2023-07-24T03:25:16;19.70;99.90
13049;DHT22;6591;51.446;5.404;2023-07-24T03:27:44;18.70;99.90
13049;DHT22;6591;51.446;5.404;2023-07-24T03:30:13;18.30;99.90
13049;DHT22;6591;51.446;5.404;2023-07-24T03:32:40;19.70;99.90
13049;DHT22;6591;51.446;5.404;2023-07-24T03:35:10;19.50;99.90
13049;DHT22;6591;51.446;5.404;2023-07-24T03:37:49;19.40;99.90
13049;DHT22;6591;51.446;5.404;2023-07-24T03:40:29;19.40;99.90
13049;DHT22;6591;51.446;5.404;2023-07-24T03:43:35;19.50;99.90
13049;DHT22;6591;51.446;5.404;2023-07-24T03:46:03;19.50;99.90
13049;DHT22;6591;51.446;5.404;2023-07-24T03:48:30;19.70;99.90
13049;DHT22;6591;51.446;5.404;2023-07-24T03:50:59;19.40;99.90
13049;DHT22;6591;51.446;5.404;2023-07-24T03:53:31;19.40;99.90
13049;DHT22;6591;51.446;5.404;2023-07-24T03:56:09;19.30;99.90
13049;DHT22;6591;51.446;5.404;2023-07-24T03:58:37;19.20;99.90
13049;DHT22;6591;51.446;5.404;2023-07-24T04:01:06;19.30;99.90
13049;DHT22;6591;51.446;5.404;2023-07-24T04:03:35;19.30;99.90
13049;DHT22;6591;51.446;5.404;2023-07-24T04:06:02;19.30;99.90
13049;DHT22;6591;51.446;5.404;2023-07-24T04:08:30;19.20;99.90
13049;DHT22;6591;51.446;5.404;2023-07-24T04:10:57;19.20;99.90
13049;DHT22;6591;51.446;5.404;2023-07-24T04:13:24;21.20;99.90
13049;DHT22;6591;51.446;5.404;2023-07-24T04:15:51;19.70;99.90
13049;DHT22;6591;51.446;5.404;2023-07-24T04:18:18;19.20;99.90
13049;DHT22;6591;51.446;5.404;2023-07-24T04:20:45;20.50;99.90
13049;DHT22;6591;51.446;5.404;2023-07-24T04:23:12;19.10;99.90
13049;DHT22;6591;51.446;5.404;2023-07-24T04:25:39;19.10;99.90
13049;DHT22;6591;51.446;5.404;2023-07-24T04:28:06;19.20;99.90
13049;DHT22;6591;51.446;5.404;2023-07-24T04:30:33;19.80;99.90
13049;DHT22;6591;51.446;5.404;2023-07-24T04:33:00;19.10;99.90
13049;DHT22;6591;51.446;5.404;2023-07-24T04:35:28;19.10;99.90
13049;DHT22;6591;51.446;5.404;2023-07-24T04:37:55;19.00;99.90
13049;DHT22;6591;51.446;5.404;2023-07-24T04:40:24;19.10;99.90
13049;DHT22;6591;51.446;5.404;2023-07-24T04:42:51;19.00;99.90
13049;DHT22;6591;51.446;5.404;2023-07-24T04:45:18;19.00;99.90
13049;DHT22;6591;51.446;5.404;2023-07-24T04:47:48;19.00;99.90
13049;DHT22;6591;51.446;5.404;2023-07-24T04:50:15;20.00;99.90
13049;DHT22;6591;51.446;5.404;2023-07-24T04:52:43;18.90;99.90
13049;DHT22;6591;51.446;5.404;2023-07-24T04:55:10;18.90;99.90
13049;DHT22;6591;51.446;5.404;2023-07-24T04:57:37;20.10;99.90
13049;DHT22;6591;51.446;5.404;2023-07-24T05:00:04;18.80;99.90
13049;DHT22;6591;51.446;5.404;2023-07-24T05:02:32;18.80;99.90
13049;DHT22;6591;51.446;5.404;2023-07-24T05:04:59;18.80;99.90
13049;DHT22;6591;51.446;5.404;2023-07-24T05:07:26;18.80;99.90
13049;DHT22;6591;51.446;5.404;2023-07-24T05:09:53;18.90;99.90
13049;DHT22;6591;51.446;5.404;2023-07-24T05:12:20;20.70;99.90
13049;DHT22;6591;51.446;5.404;2023-07-24T05:14:48;18.70;99.90
13049;DHT22;6591;51.446;5.404;2023-07-24T05:17:15;18.70;99.90
13049;DHT22;6591;51.446;5.404;2023-07-24T05:19:42;20.20;99.90
13049;DHT22;6591;51.446;5.404;2023-07-24T05:22:09;18.70;99.90
13049;DHT22;6591;51.446;5.404;2023-07-24T05:24:37;18.70;99.90
13049;DHT22;6591;51.446;5.404;2023-07-24T05:27:05;18.70;99.90
13049;DHT22;6591;51.446;5.404;2023-07-24T05:29:39;18.70;99.90
13049;DHT22;6591;51.446;5.404;2023-07-24T05:32:07;18.70;99.90
13049;DHT22;6591;51.446;5.404;2023-07-24T05:34:40;16.90;99.90
13049;DHT22;6591;51.446;5.404;2023-07-24T05:37:10;18.70;99.90
13049;DHT22;6591;51.446;5.404;2023-07-24T05:39:37;18.70;99.90
13049;DHT22;6591;51.446;5.404;2023-07-24T05:42:11;18.80;99.90
13049;DHT22;6591;51.446;5.404;2023-07-24T05:44:41;17.90;99.90
13049;DHT22;6591;51.446;5.404;2023-07-24T05:47:08;18.80;99.90
13049;DHT22;6591;51.446;5.404;2023-07-24T05:49:38;19.00;99.90
13049;DHT22;6591;51.446;5.404;2023-07-24T05:52:11;18.90;99.90
13049;DHT22;6591;51.446;5.404;2023-07-24T05:54:40;19.10;99.90
13049;DHT22;6591;51.446;5.404;2023-07-24T05:57:07;19.10;99.90
13049;DHT22;6591;51.446;5.404;2023-07-24T05:59:34;19.90;99.90
13049;DHT22;6591;51.446;5.404;2023-07-24T06:02:05;19.20;99.90
13049;DHT22;6591;51.446;5.404;2023-07-24T06:04:32;19.20;99.90
13049;DHT22;6591;51.446;5.404;2023-07-24T06:06:59;19.30;99.90
13049;DHT22;6591;51.446;5.404;2023-07-24T06:09:27;20.70;99.90
13049;DHT22;6591;51.446;5.404;2023-07-24T06:11:54;19.40;99.90
13049;DHT22;6591;51.446;5.404;2023-07-24T06:14:21;19.40;99.90
13049;DHT22;6591;51.446;5.404;2023-07-24T06:16:48;19.60;99.90
13049;DHT22;6591;51.446;5.404;2023-07-24T06:19:15;19.60;99.90
13049;DHT22;6591;51.446;5.404;2023-07-24T06:21:42;19.60;99.90
13049;DHT22;6591;51.446;5.404;2023-07-24T06:24:10;19.90;99.90
13049;DHT22;6591;51.446;5.404;2023-07-24T06:26:39;19.90;99.90
13049;DHT22;6591;51.446;5.404;2023-07-24T06:29:07;20.00;99.90
13049;DHT22;6591;51.446;5.404;2023-07-24T06:31:37;18.90;99.90
13049;DHT22;6591;51.446;5.404;2023-07-24T06:34:04;20.20;99.90
13049;DHT22;6591;51.446;5.404;2023-07-24T06:36:35;19.10;99.90
13049;DHT22;6591;51.446;5.404;2023-07-24T06:39:02;20.20;99.90
13049;DHT22;6591;51.446;5.404;2023-07-24T06:41:30;20.00;99.90
13049;DHT22;6591;51.446;5.404;2023-07-24T06:43:58;20.30;99.90
13049;DHT22;6591;51.446;5.404;2023-07-24T06:46:25;20.40;99.90
13049;DHT22;6591;51.446;5.404;2023-07-24T06:48:52;20.40;99.90
13049;DHT22;6591;51.446;5.404;2023-07-24T06:51:19;20.30;99.90
13049;DHT22;6591;51.446;5.404;2023-07-24T06:53:53;20.30;99.90
13049;DHT22;6591;51.446;5.404;2023-07-24T06:56:21;20.20;99.90
13049;DHT22;6591;51.446;5.404;2023-07-24T06:58:51;20.10;99.90
13049;DHT22;6591;51.446;5.404;2023-07-24T07:01:18;20.20;99.90
13049;DHT22;6591;51.446;5.404;2023-07-24T07:03:45;20.30;99.90
13049;DHT22;6591;51.446;5.404;2023-07-24T07:06:12;20.10;99.90
13049;DHT22;6591;51.446;5.404;2023-07-24T07:08:43;20.10;99.90
13049;DHT22;6591;51.446;5.404;2023-07-24T07:11:10;20.10;99.90
13049;DHT22;6591;51.446;5.404;2023-07-24T07:13:37;20.20;99.90
13049;DHT22;6591;51.446;5.404;2023-07-24T07:16:04;20.20;99.90
13049;DHT22;6591;51.446;5.404;2023-07-24T07:18:31;20.10;99.90
13049;DHT22;6591;51.446;5.404;2023-07-24T07:21:00;20.10;99.90
13049;DHT22;6591;51.446;5.404;2023-07-24T07:23:28;18.90;99.90
13049;DHT22;6591;51.446;5.404;2023-07-24T07:25:55;21.60;99.90
13049;DHT22;6591;51.446;5.404;2023-07-24T07:28:22;20.30;99.90
13049;DHT22;6591;51.446;5.404;2023-07-24T07:30:49;20.70;99.90
13049;DHT22;6591;51.446;5.404;2023-07-24T07:33:16;20.10;99.90
13049;DHT22;6591;51.446;5.404;2023-07-24T07:35:44;20.10;99.90
13049;DHT22;6591;51.446;5.404;2023-07-24T07:38:11;20.10;99.90
13049;DHT22;6591;51.446;5.404;2023-07-24T07:40:38;20.30;99.90
13049;DHT22;6591;51.446;5.404;2023-07-24T07:43:06;20.20;99.90
13049;DHT22;6591;51.446;5.404;2023-07-24T07:45:33;20.20;99.90
13049;DHT22;6591;51.446;5.404;2023-07-24T07:48:00;20.30;99.90
13049;DHT22;6591;51.446;5.404;2023-07-24T07:50:27;20.40;99.90
13049;DHT22;6591;51.446;5.404;2023-07-24T07:52:54;21.70;99.90
13049;DHT22;6591;51.446;5.404;2023-07-24T07:55:21;21.40;99.90
13049;DHT22;6591;51.446;5.404;2023-07-24T07:57:48;20.80;99.90
13049;DHT22;6591;51.446;5.404;2023-07-24T08:00:15;21.00;99.90
13049;DHT22;6591;51.446;5.404;2023-07-24T08:02:45;21.10;99.90
13049;DHT22;6591;51.446;5.404;2023-07-24T08:05:13;21.40;99.90
13049;DHT22;6591;51.446;5.404;2023-07-24T08:07:47;21.50;99.90
13049;DHT22;6591;51.446;5.404;2023-07-24T08:10:16;21.80;99.90
13049;DHT22;6591;51.446;5.404;2023-07-24T08:12:44;21.90;99.90
13049;DHT22;6591;51.446;5.404;2023-07-24T08:15:11;22.10;99.90
13049;DHT22;6591;51.446;5.404;2023-07-24T08:17:38;22.10;99.90
13049;DHT22;6591;51.446;5.404;2023-07-24T08:20:06;22.10;99.90
13049;DHT22;6591;51.446;5.404;2023-07-24T08:22:33;22.20;99.90
13049;DHT22;6591;51.446;5.404;2023-07-24T08:25:01;22.30;99.90
13049;DHT22;6591;51.446;5.404;2023-07-24T08:27:28;22.30;99.90
13049;DHT22;6591;51.446;5.404;2023-07-24T08:29:56;22.40;99.90
13049;DHT22;6591;51.446;5.404;2023-07-24T08:32:23;22.50;99.90
13049;DHT22;6591;51.446;5.404;2023-07-24T08:34:50;22.50;99.90
13049;DHT22;6591;51.446;5.404;2023-07-24T08:37:17;22.50;99.90
13049;DHT22;6591;51.446;5.404;2023-07-24T08:39:45;22.50;99.90
13049;DHT22;6591;51.446;5.404;2023-07-24T08:42:13;22.40;99.90
13049;DHT22;6591;51.446;5.404;2023-07-24T08:44:44;21.10;99.90
13049;DHT22;6591;51.446;5.404;2023-07-24T08:47:13;22.30;99.90
13049;DHT22;6591;51.446;5.404;2023-07-24T08:49:43;22.20;99.90
13049;DHT22;6591;51.446;5.404;2023-07-24T08:52:11;21.70;99.90
13049;DHT22;6591;51.446;5.404;2023-07-24T08:54:57;22.30;99.90
13049;DHT22;6591;51.446;5.404;2023-07-24T08:57:27;22.20;99.90
13049;DHT22;6591;51.446;5.404;2023-07-24T08:59:55;22.30;99.90
13049;DHT22;6591;51.446;5.404;2023-07-24T09:02:22;22.40;99.90
13049;DHT22;6591;51.446;5.404;2023-07-24T09:04:51;22.50;99.90
13049;DHT22;6591;51.446;5.404;2023-07-24T09:07:21;22.50;99.90
13049;DHT22;6591;51.446;5.404;2023-07-24T09:09:49;22.60;99.90
13049;DHT22;6591;51.446;5.404;2023-07-24T09:12:16;23.50;99.90
13049;DHT22;6591;51.446;5.404;2023-07-24T09:14:44;22.70;99.90
13049;DHT22;6591;51.446;5.404;2023-07-24T09:17:12;22.90;99.90
13049;DHT22;6591;51.446;5.404;2023-07-24T09:19:40;23.10;99.90
13049;DHT22;6591;51.446;5.404;2023-07-24T09:22:09;21.50;99.90
13049;DHT22;6591;51.446;5.404;2023-07-24T09:24:52;23.40;99.90
13049;DHT22;6591;51.446;5.404;2023-07-24T09:27:25;23.50;99.90
13049;DHT22;6591;51.446;5.404;2023-07-24T09:29:57;23.70;99.90
13049;DHT22;6591;51.446;5.404;2023-07-24T09:32:26;23.80;99.90
13049;DHT22;6591;51.446;5.404;2023-07-24T09:34:54;23.90;99.90
13049;DHT22;6591;51.446;5.404;2023-07-24T09:37:32;24.30;99.90
13049;DHT22;6591;51.446;5.404;2023-07-24T09:40:04;23.90;99.90
13049;DHT22;6591;51.446;5.404;2023-07-24T09:42:33;22.90;99.90
13049;DHT22;6591;51.446;5.404;2023-07-24T09:45:19;24.00;99.90
13049;DHT22;6591;51.446;5.404;2023-07-24T09:47:50;23.90;99.90
13049;DHT22;6591;51.446;5.404;2023-07-24T09:50:23;23.90;99.90
13049;DHT22;6591;51.446;5.404;2023-07-24T09:52:51;23.90;99.90
13049;DHT22;6591;51.446;5.404;2023-07-24T09:55:25;23.70;99.90
13049;DHT22;6591;51.446;5.404;2023-07-24T09:57:58;23.70;99.90
13049;DHT22;6591;51.446;5.404;2023-07-24T10:00:25;23.50;99.90
13049;DHT22;6591;51.446;5.404;2023-07-24T10:02:54;23.30;99.90
13049;DHT22;6591;51.446;5.404;2023-07-24T10:05:22;23.20;99.90
13049;DHT22;6591;51.446;5.404;2023-07-24T10:07:50;23.10;99.90
13049;DHT22;6591;51.446;5.404;2023-07-24T10:10:18;23.00;99.90
13049;DHT22;6591;51.446;5.404;2023-07-24T10:12:48;22.90;99.90
13049;DHT22;6591;51.446;5.404;2023-07-24T10:15:16;22.80;99.90
13049;DHT22;6591;51.446;5.404;2023-07-24T10:17:46;22.70;99.90
13049;DHT22;6591;51.446;5.404;2023-07-24T10:20:18;22.60;99.90
13049;DHT22;6591;51.446;5.404;2023-07-24T10:22:46;22.50;99.90
13049;DHT22;6591;51.446;5.404;2023-07-24T10:25:16;22.40;99.90
13049;DHT22;6591;51.446;5.404;2023-07-24T10:27:45;22.40;99.90
13049;DHT22;6591;51.446;5.404;2023-07-24T10:30:14;22.30;99.90
13049;DHT22;6591;51.446;5.404;2023-07-24T10:33:07;22.30;99.90
13049;DHT22;6591;51.446;5.404;2023-07-24T10:35:43;22.20;99.90
13049;DHT22;6591;51.446;5.404;2023-07-24T10:38:14;22.20;99.90
13049;DHT22;6591;51.446;5.404;2023-07-24T10:40:45;22.10;99.90
13049;DHT22;6591;51.446;5.404;2023-07-24T10:43:19;22.10;99.90
13049;DHT22;6591;51.446;5.404;2023-07-24T10:45:52;22.20;99.90
13049;DHT22;6591;51.446;5.404;2023-07-24T10:48:23;22.20;99.90
13049;DHT22;6591;51.446;5.404;2023-07-24T10:50:52;21.30;99.90
13049;DHT22;6591;51.446;5.404;2023-07-24T10:53:48;22.20;99.90
13049;DHT22;6591;51.446;5.404;2023-07-24T10:56:18;22.30;99.90
13049;DHT22;6591;51.446;5.404;2023-07-24T10:58:45;22.50;99.90
13049;DHT22;6591;51.446;5.404;2023-07-24T11:01:12;22.70;99.90
13049;DHT22;6591;51.446;5.404;2023-07-24T11:03:44;22.70;99.90
13049;DHT22;6591;51.446;5.404;2023-07-24T11:06:16;22.80;99.90
13049;DHT22;6591;51.446;5.404;2023-07-24T11:08:55;22.80;99.90
13049;DHT22;6591;51.446;5.404;2023-07-24T11:11:33;23.10;99.90
13049;DHT22;6591;51.446;5.404;2023-07-24T11:14:03;23.20;99.90
13049;DHT22;6591;51.446;5.404;2023-07-24T11:16:31;22.80;99.90
13049;DHT22;6591;51.446;5.404;2023-07-24T11:19:01;23.30;99.90
13049;DHT22;6591;51.446;5.404;2023-07-24T11:21:28;23.30;99.90
13049;DHT22;6591;51.446;5.404;2023-07-24T11:23:57;23.40;99.90
13049;DHT22;6591;51.446;5.404;2023-07-24T11:26:25;23.40;99.90
13049;DHT22;6591;51.446;5.404;2023-07-24T11:28:54;23.40;99.90
13049;DHT22;6591;51.446;5.404;2023-07-24T11:31:21;23.30;99.90
13049;DHT22;6591;51.446;5.404;2023-07-24T11:33:49;23.20;99.90
13049;DHT22;6591;51.446;5.404;2023-07-24T11:36:28;23.10;99.90
13049;DHT22;6591;51.446;5.404;2023-07-24T11:38:55;23.00;99.90
13049;DHT22;6591;51.446;5.404;2023-07-24T11:41:22;22.80;99.90
13049;DHT22;6591;51.446;5.404;2023-07-24T11:43:50;22.60;99.90
13049;DHT22;6591;51.446;5.404;2023-07-24T11:46:25;22.60;99.90
13049;DHT22;6591;51.446;5.404;2023-07-24T11:48:54;22.50;99.90
13049;DHT22;6591;51.446;5.404;2023-07-24T11:51:26;22.40;99.90
13049;DHT22;6591;51.446;5.404;2023-07-24T11:54:12;22.30;99.90
13049;DHT22;6591;51.446;5.404;2023-07-24T11:56:44;22.10;99.90
13049;DHT22;6591;51.446;5.404;2023-07-24T11:59:13;22.20;99.90
13049;DHT22;6591;51.446;5.404;2023-07-24T12:01:54;22.20;99.90
13049;DHT22;6591;51.446;5.404;2023-07-24T12:04:21;22.30;99.90
13049;DHT22;6591;51.446;5.404;2023-07-24T12:06:49;21.60;99.90
13049;DHT22;6591;51.446;5.404;2023-07-24T12:09:16;22.50;99.90
13049;DHT22;6591;51.446;5.404;2023-07-24T12:11:44;21.60;99.90
13049;DHT22;6591;51.446;5.404;2023-07-24T12:14:14;22.90;99.90
13049;DHT22;6591;51.446;5.404;2023-07-24T12:16:44;23.20;99.90
13049;DHT22;6591;51.446;5.404;2023-07-24T12:19:14;23.30;99.90
13049;DHT22;6591;51.446;5.404;2023-07-24T12:21:45;23.70;99.90
13049;DHT22;6591;51.446;5.404;2023-07-24T12:24:12;23.80;99.90
13049;DHT22;6591;51.446;5.404;2023-07-24T12:26:39;24.00;99.90
13049;DHT22;6591;51.446;5.404;2023-07-24T12:29:06;24.20;99.90
13049;DHT22;6591;51.446;5.404;2023-07-24T12:31:33;24.40;99.90
13049;DHT22;6591;51.446;5.404;2023-07-24T12:34:01;24.50;99.90
13049;DHT22;6591;51.446;5.404;2023-07-24T12:36:31;24.60;99.90
13049;DHT22;6591;51.446;5.404;2023-07-24T12:38:59;24.70;99.90
13049;DHT22;6591;51.446;5.404;2023-07-24T12:41:26;25.00;99.90
13049;DHT22;6591;51.446;5.404;2023-07-24T12:43:54;24.90;99.90
13049;DHT22;6591;51.446;5.404;2023-07-24T12:46:22;25.20;99.90
13049;DHT22;6591;51.446;5.404;2023-07-24T12:48:51;25.10;99.90
13049;DHT22;6591;51.446;5.404;2023-07-24T12:51:19;25.00;99.90
13049;DHT22;6591;51.446;5.404;2023-07-24T12:53:46;24.90;99.90
13049;DHT22;6591;51.446;5.404;2023-07-24T12:56:30;24.90;99.90
13049;DHT22;6591;51.446;5.404;2023-07-24T12:58:58;24.70;99.90
13049;DHT22;6591;51.446;5.404;2023-07-24T13:01:27;24.60;99.90
13049;DHT22;6591;51.446;5.404;2023-07-24T13:03:58;23.30;99.90
13049;DHT22;6591;51.446;5.404;2023-07-24T13:06:26;24.60;99.90
13049;DHT22;6591;51.446;5.404;2023-07-24T13:08:54;24.80;99.90
13049;DHT22;6591;51.446;5.404;2023-07-24T13:11:21;25.10;99.90
13049;DHT22;6591;51.446;5.404;2023-07-24T13:13:49;25.40;99.90
13049;DHT22;6591;51.446;5.404;2023-07-24T13:16:17;25.70;99.90
13049;DHT22;6591;51.446;5.404;2023-07-24T13:18:44;26.10;99.90
13049;DHT22;6591;51.446;5.404;2023-07-24T13:21:12;26.50;99.90
13049;DHT22;6591;51.446;5.404;2023-07-24T13:23:41;26.80;99.90
13049;DHT22;6591;51.446;5.404;2023-07-24T13:26:08;27.10;99.90
13049;DHT22;6591;51.446;5.404;2023-07-24T13:28:37;27.30;99.90
13049;DHT22;6591;51.446;5.404;2023-07-24T13:31:18;27.50;99.90
13049;DHT22;6591;51.446;5.404;2023-07-24T13:33:46;27.70;99.90
13049;DHT22;6591;51.446;5.404;2023-07-24T13:36:13;27.90;99.90
13049;DHT22;6591;51.446;5.404;2023-07-24T13:38:41;28.00;99.90
13049;DHT22;6591;51.446;5.404;2023-07-24T13:41:08;28.10;99.90
13049;DHT22;6591;51.446;5.404;2023-07-24T13:43:35;28.10;99.90
13049;DHT22;6591;51.446;5.404;2023-07-24T13:46:02;28.10;99.90
13049;DHT22;6591;51.446;5.404;2023-07-24T13:48:30;27.90;99.90
13049;DHT22;6591;51.446;5.404;2023-07-24T13:50:57;27.00;99.90
13049;DHT22;6591;51.446;5.404;2023-07-24T13:53:24;27.50;99.90
13049;DHT22;6591;51.446;5.404;2023-07-24T13:55:52;27.20;99.90
13049;DHT22;6591;51.446;5.404;2023-07-24T13:58:19;26.80;99.90
13049;DHT22;6591;51.446;5.404;2023-07-24T14:00:46;26.50;99.90
13049;DHT22;6591;51.446;5.404;2023-07-24T14:03:13;26.10;99.90
13049;DHT22;6591;51.446;5.404;2023-07-24T14:05:40;25.60;99.90
13049;DHT22;6591;51.446;5.404;2023-07-24T14:08:07;24.80;99.90
13049;DHT22;6591;51.446;5.404;2023-07-24T14:10:35;24.30;99.90
13049;DHT22;6591;51.446;5.404;2023-07-24T14:13:03;23.60;99.90
13049;DHT22;6591;51.446;5.404;2023-07-24T14:15:30;23.00;99.90
13049;DHT22;6591;51.446;5.404;2023-07-24T14:17:58;22.70;99.90
13049;DHT22;6591;51.446;5.404;2023-07-24T14:20:25;23.40;99.90
13049;DHT22;6591;51.446;5.404;2023-07-24T14:22:52;21.60;99.90
13049;DHT22;6591;51.446;5.404;2023-07-24T14:25:19;22.00;99.90
13049;DHT22;6591;51.446;5.404;2023-07-24T14:27:46;21.10;99.90
13049;DHT22;6591;51.446;5.404;2023-07-24T14:30:13;20.90;99.90
13049;DHT22;6591;51.446;5.404;2023-07-24T14:32:40;20.80;99.90
13049;DHT22;6591;51.446;5.404;2023-07-24T14:35:11;20.80;99.90
13049;DHT22;6591;51.446;5.404;2023-07-24T14:37:38;20.30;99.90
13049;DHT22;6591;51.446;5.404;2023-07-24T14:40:05;21.40;99.90
13049;DHT22;6591;51.446;5.404;2023-07-24T14:42:33;21.20;99.90
13049;DHT22;6591;51.446;5.404;2023-07-24T14:45:00;21.40;99.90
13049;DHT22;6591;51.446;5.404;2023-07-24T14:47:29;21.50;99.90
13049;DHT22;6591;51.446;5.404;2023-07-24T14:49:57;21.80;99.90
13049;DHT22;6591;51.446;5.404;2023-07-24T14:52:24;23.40;99.90
13049;DHT22;6591;51.446;5.404;2023-07-24T14:54:52;22.40;99.90
13049;DHT22;6591;51.446;5.404;2023-07-24T14:57:19;23.70;99.90
13049;DHT22;6591;51.446;5.404;2023-07-24T14:59:52;23.20;99.90
13049;DHT22;6591;51.446;5.404;2023-07-24T15:02:19;23.60;99.90
13049;DHT22;6591;51.446;5.404;2023-07-24T15:04:47;24.10;99.90
13049;DHT22;6591;51.446;5.404;2023-07-24T15:07:14;24.50;99.90
13049;DHT22;6591;51.446;5.404;2023-07-24T15:09:42;25.00;99.90
13049;DHT22;6591;51.446;5.404;2023-07-24T15:12:10;25.30;99.90
13049;DHT22;6591;51.446;5.404;2023-07-24T15:14:37;25.60;99.90
13049;DHT22;6591;51.446;5.404;2023-07-24T15:17:04;25.70;99.90
13049;DHT22;6591;51.446;5.404;2023-07-24T15:19:31;26.00;99.90
13049;DHT22;6591;51.446;5.404;2023-07-24T15:22:00;26.20;99.90
13049;DHT22;6591;51.446;5.404;2023-07-24T15:24:30;26.20;99.90
13049;DHT22;6591;51.446;5.404;2023-07-24T15:27:10;26.20;99.90
13049;DHT22;6591;51.446;5.404;2023-07-24T15:29:38;25.10;99.90
13049;DHT22;6591;51.446;5.404;2023-07-24T15:32:05;26.50;99.90
13049;DHT22;6591;51.446;5.404;2023-07-24T15:34:33;26.60;99.90
13049;DHT22;6591;51.446;5.404;2023-07-24T15:37:04;26.60;99.90
13049;DHT22;6591;51.446;5.404;2023-07-24T15:39:31;26.60;99.90
13049;DHT22;6591;51.446;5.404;2023-07-24T15:41:59;26.50;99.90
13049;DHT22;6591;51.446;5.404;2023-07-24T15:44:26;26.40;99.90
13049;DHT22;6591;51.446;5.404;2023-07-24T15:46:53;26.10;99.90
13049;DHT22;6591;51.446;5.404;2023-07-24T15:49:20;26.00;99.90
13049;DHT22;6591;51.446;5.404;2023-07-24T15:51:47;25.80;99.90
13049;DHT22;6591;51.446;5.404;2023-07-24T15:54:15;25.50;99.90
13049;DHT22;6591;51.446;5.404;2023-07-24T15:56:42;25.40;99.90
13049;DHT22;6591;51.446;5.404;2023-07-24T15:59:09;25.10;99.90